San Austin — WDE5041 — position and weather

sailwx.info

Track history (hours):
 
Tides and Currents Weather Stations Pressure Air Temp Water Temp Dewpoint Dewpoint Depression Visibility Wind Speed Wind Dir Waves Ship Positions

San Austin

Owner: Buffalo Mariner Service, Inc., Houston, TX. More information available from US FCC via Universal Licensing System and Coast Guard Vessel Documentation Center.

Last reported at 2017-Nov-19 23:39 UTC. Time now 2017-Nov-21 19:22 UTC.
Position N 29°45' W 095°06'.

Length 20 m; draft 3 m.

Type: Tug. MMSI: 367361210.

Date/timePositionNaut miles runAvg speedWind from/ knotsBaromVisibWave heightAir tempDewpointWater temp
2017-Nov-19 23:39N 29°45' W 095°06'1 4.1
2017-Nov-19 23:30N 29°46' W 095°05'2 5.0
2017-Nov-19 23:00N 29°44' W 095°03'0 0.5
2017-Nov-19 22:31N 29°44' W 095°03'0 0.1
2017-Nov-19 22:00N 29°44' W 095°03'0 0.0
2017-Nov-19 21:31N 29°44' W 095°03'0 0.0
2017-Nov-19 21:01N 29°44' W 095°03'0 0.0
2017-Nov-19 20:31N 29°44' W 095°03'0 0.0
2017-Nov-19 20:01N 29°44' W 095°03'0 0.0
2017-Nov-19 19:31N 29°44' W 095°03'0 0.0
2017-Nov-19 19:00N 29°44' W 095°03'0 0.0
2017-Nov-19 18:31N 29°44' W 095°03'0 0.0
2017-Nov-19 18:01N 29°44' W 095°03'0 0.0
2017-Nov-19 17:31N 29°44' W 095°03'0 0.0
2017-Nov-19 17:01N 29°44' W 095°03'0 0.0
2017-Nov-19 16:31N 29°44' W 095°03'0 0.0
2017-Nov-19 15:59N 29°44' W 095°03'0 0.0
2017-Nov-19 15:30N 29°44' W 095°03'2 4.4
2017-Nov-19 15:00N 29°46' W 095°05'1 0.1
2017-Nov-18 20:47N 29°47' W 095°06'1 2.4
2017-Nov-18 20:26N 29°46' W 095°05'3 6.7
2017-Nov-18 19:56N 29°44' W 095°02'3 6.3
2017-Nov-18 19:30N 29°42' W 095°00'4 6.9
2017-Nov-18 19:00N 29°39' W 094°58'3 7.2
2017-Nov-18 18:31N 29°36' W 094°57'4 7.3
2017-Nov-18 18:01N 29°33' W 094°54'1 0.1
2017-Nov-18 05:18N 29°32' W 094°54'2 7.4
2017-Nov-18 05:00N 29°34' W 094°55'4 7.5
2017-Nov-18 04:30N 29°37' W 094°57'4 7.7
2017-Nov-18 04:01N 29°41' W 094°59'4 6.9
2017-Nov-18 03:29N 29°43' W 095°01'2 2.7
2017-Nov-18 02:55N 29°44' W 095°03'0 0.0
2017-Nov-18 02:31N 29°44' W 095°03'0 0.0
2017-Nov-18 02:01N 29°44' W 095°03'0 0.0
2017-Nov-18 01:30N 29°44' W 095°03'0 0.0
2017-Nov-18 01:01N 29°44' W 095°03'0 0.0
2017-Nov-18 00:30N 29°44' W 095°03'0 0.0
2017-Nov-18 00:01N 29°44' W 095°03'0 0.0
2017-Nov-17 23:31N 29°44' W 095°03'0 0.0
2017-Nov-17 23:01N 29°44' W 095°03'0 0.0
2017-Nov-17 22:31N 29°44' W 095°03'0 0.0
2017-Nov-17 22:01N 29°44' W 095°03'0 0.0
2017-Nov-17 21:30N 29°44' W 095°03'0 0.0
2017-Nov-17 21:01N 29°44' W 095°03'0 0.0
2017-Nov-17 20:30N 29°44' W 095°03'0 0.0
2017-Nov-17 20:01N 29°44' W 095°03'0 0.0
2017-Nov-17 19:31N 29°44' W 095°03'0 0.0
2017-Nov-17 19:01N 29°44' W 095°03'0 0.4
2017-Nov-17 18:30N 29°44' W 095°03'4 1.2
2017-Nov-17 15:39N 29°47' W 095°06'0 0.1
2017-Nov-17 13:02N 29°46' W 095°06'0 0.1
2017-Nov-17 12:53N 29°46' W 095°06'0 0.1
2017-Nov-17 12:24N 29°46' W 095°06'1 1.7
2017-Nov-17 11:59N 29°46' W 095°06'3 6.3
2017-Nov-17 11:28N 29°44' W 095°03'3 7.2
2017-Nov-17 11:01N 29°42' W 094°60'1 1.4
2017-Nov-17 10:23N 29°41' W 094°60'0 0.0
2017-Nov-17 09:59N 29°41' W 094°60'0 0.0
2017-Nov-17 09:25N 29°41' W 094°60'0 0.0
2017-Nov-17 09:01N 29°41' W 094°60'0 0.0
2017-Nov-17 08:30N 29°41' W 094°60'0 0.0
2017-Nov-17 07:59N 29°41' W 094°60'0 0.0
2017-Nov-17 07:30N 29°41' W 094°60'0 0.0
2017-Nov-17 07:00N 29°41' W 094°60'0 0.0
2017-Nov-17 06:30N 29°41' W 094°60'0 0.0
2017-Nov-17 05:59N 29°41' W 094°60'0 0.0
2017-Nov-17 05:30N 29°41' W 094°60'0 0.0
2017-Nov-17 05:01N 29°41' W 094°60'0 0.0
2017-Nov-17 04:29N 29°41' W 094°60'0 0.0
2017-Nov-17 04:01N 29°41' W 094°60'0 0.0
2017-Nov-17 03:30N 29°41' W 094°60'0 0.0
2017-Nov-17 03:00N 29°41' W 094°60'0 0.0
2017-Nov-17 02:31N 29°41' W 094°60'0 0.0
2017-Nov-17 02:00N 29°41' W 094°60'0 0.0
2017-Nov-17 01:29N 29°41' W 094°60'0 0.0
2017-Nov-17 01:00N 29°41' W 094°60'0 0.0
2017-Nov-17 00:31N 29°41' W 094°60'0 0.0
2017-Nov-17 00:01N 29°41' W 094°60'0 0.0
2017-Nov-16 23:29N 29°41' W 094°60'0 0.0
2017-Nov-16 23:01N 29°41' W 094°60'0 0.5
2017-Nov-16 22:31N 29°41' W 094°60'1 2.3
2017-Nov-16 22:01N 29°42' W 095°00'3 6.0
2017-Nov-16 21:30N 29°44' W 095°03'3 5.0
2017-Nov-16 20:57N 29°45' W 095°06'0 0.1
2017-Nov-16 20:09N 29°45' W 095°06'0 0.0
2017-Nov-16 19:54N 29°45' W 095°06'0 0.0
2017-Nov-16 19:15N 29°45' W 095°06'0 0.0
2017-Nov-16 18:59N 29°45' W 095°06'0 0.0
2017-Nov-16 18:25N 29°45' W 095°06'0 0.0
2017-Nov-16 18:00N 29°45' W 095°06'0 0.0
2017-Nov-16 16:53N 29°45' W 095°06'0 0.0
2017-Nov-16 16:30N 29°45' W 095°06'0 0.0
2017-Nov-16 16:00N 29°45' W 095°06'0 0.0
2017-Nov-16 15:30N 29°45' W 095°06'0 0.0
2017-Nov-16 14:58N 29°45' W 095°06'0 0.0
2017-Nov-16 14:27N 29°45' W 095°06'0 0.0
2017-Nov-16 13:55N 29°45' W 095°06'0 0.0
2017-Nov-16 13:27N 29°45' W 095°06'0 0.0
2017-Nov-16 13:00N 29°45' W 095°06'0 0.0
2017-Nov-16 12:30N 29°45' W 095°06'0 0.0
2017-Nov-16 12:00N 29°45' W 095°06'0 0.0
2017-Nov-16 11:29N 29°45' W 095°06'0 0.0
2017-Nov-16 11:00N 29°45' W 095°06'0 0.0
2017-Nov-16 10:30N 29°45' W 095°06'0 0.0
2017-Nov-16 09:59N 29°45' W 095°06'0 0.0
2017-Nov-16 09:25N 29°45' W 095°06'0 0.0
2017-Nov-16 08:59N 29°45' W 095°06'0 0.0
2017-Nov-16 08:30N 29°45' W 095°06'0 0.0
2017-Nov-16 08:00N 29°45' W 095°06'0 0.0
2017-Nov-16 07:28N 29°45' W 095°06'0 0.0
2017-Nov-16 06:59N 29°45' W 095°06'0 0.0
2017-Nov-16 06:29N 29°45' W 095°06'0 0.0
2017-Nov-16 06:00N 29°45' W 095°06'1 1.2
2017-Nov-16 05:28N 29°46' W 095°06'1 1.4
2017-Nov-16 04:53N 29°46' W 095°07'0 0.1
2017-Nov-16 04:30N 29°46' W 095°07'0 0.0
2017-Nov-16 04:00N 29°46' W 095°07'0 0.0
2017-Nov-16 03:30N 29°46' W 095°07'0 0.0
2017-Nov-16 03:00N 29°46' W 095°07'0 0.0
2017-Nov-16 02:30N 29°46' W 095°07'0 0.0
2017-Nov-16 02:00N 29°46' W 095°07'0 0.0
2017-Nov-16 01:30N 29°46' W 095°07'0 0.0
2017-Nov-16 01:00N 29°46' W 095°07'0 0.0
2017-Nov-16 00:30N 29°46' W 095°07'1 0.8
2017-Nov-15 22:42N 29°45' W 095°06'0 1.2
2017-Nov-15 22:25N 29°45' W 095°06'0 0.0
2017-Nov-15 11:02N 29°45' W 095°06'0 0.1
2017-Nov-15 10:57N 29°45' W 095°06'1 2.0
2017-Nov-15 10:30N 29°46' W 095°05'3 6.0
2017-Nov-15 10:00N 29°44' W 095°03'4 7.1
2017-Nov-15 09:30N 29°42' W 094°59'1 0.4
2017-Nov-15 06:40N 29°41' W 095°00'0 0.0
2017-Nov-15 06:15N 29°41' W 095°00'0 0.0
2017-Nov-15 06:00N 29°41' W 095°00'0 0.0
2017-Nov-15 05:26N 29°41' W 095°00'0 0.0
2017-Nov-15 05:00N 29°41' W 095°00'0 0.0
2017-Nov-15 04:28N 29°41' W 095°00'0 0.0
2017-Nov-15 03:58N 29°41' W 095°00'0 0.0
2017-Nov-15 03:15N 29°41' W 095°00'0 0.0
2017-Nov-15 03:00N 29°41' W 095°00'0 0.0
2017-Nov-15 02:07N 29°41' W 095°00'0 0.0
2017-Nov-15 01:48N 29°41' W 095°00'0 0.0
2017-Nov-15 01:19N 29°41' W 095°00'0 0.0
2017-Nov-15 00:54N 29°41' W 095°00'0 0.0
2017-Nov-15 00:30N 29°41' W 095°00'0 0.0
2017-Nov-14 20:15N 29°41' W 095°00'0 0.0
2017-Nov-14 18:22N 29°41' W 095°00'0 0.0
2017-Nov-14 17:21N 29°41' W 095°00'0 0.6
2017-Nov-14 17:00N 29°41' W 095°00'2 3.2
2017-Nov-14 16:30N 29°42' W 095°01'4 6.8
2017-Nov-14 15:57N 29°45' W 095°04'2 4.3
2017-Nov-14 15:30N 29°45' W 095°06'0 0.1
2017-Nov-14 15:00N 29°45' W 095°06'0 0.2
2017-Nov-14 14:30N 29°45' W 095°06'0 0.0
2017-Nov-14 14:00N 29°45' W 095°06'0 0.0
2017-Nov-14 13:29N 29°45' W 095°06'0 0.0
2017-Nov-14 12:57N 29°45' W 095°06'0 0.0
2017-Nov-14 12:24N 29°45' W 095°06'0 0.0
2017-Nov-14 12:00N 29°45' W 095°06'0 0.0
2017-Nov-14 11:26N 29°45' W 095°06'0 0.0
2017-Nov-14 10:58N 29°45' W 095°06'0 0.0
2017-Nov-14 10:30N 29°45' W 095°06'0 0.0
2017-Nov-14 09:58N 29°45' W 095°06'0 0.0
2017-Nov-14 09:30N 29°45' W 095°06'0 0.0
2017-Nov-14 08:58N 29°45' W 095°06'0 0.0
2017-Nov-14 08:27N 29°45' W 095°06'0 0.0
2017-Nov-14 08:00N 29°45' W 095°06'0 0.0
2017-Nov-14 07:04N 29°45' W 095°06'0 0.0
2017-Nov-14 06:34N 29°45' W 095°06'0 0.0
2017-Nov-14 06:30N 29°45' W 095°06'0 0.0
2017-Nov-14 06:00N 29°45' W 095°06'0 0.0
2017-Nov-14 05:30N 29°45' W 095°06'0 0.0
2017-Nov-14 05:00N 29°45' W 095°06'0 0.0
2017-Nov-14 04:30N 29°45' W 095°06'0 0.0
2017-Nov-14 04:00N 29°45' W 095°06'0 0.0
2017-Nov-14 03:30N 29°45' W 095°06'0 0.0
2017-Nov-14 03:00N 29°45' W 095°06'0 0.0
2017-Nov-14 02:30N 29°45' W 095°06'0 0.0
2017-Nov-14 02:00N 29°45' W 095°06'0 0.0
2017-Nov-14 01:28N 29°45' W 095°06'0 0.0
2017-Nov-14 00:57N 29°45' W 095°06'0 0.0
2017-Nov-14 00:26N 29°45' W 095°06'0 0.0
2017-Nov-14 00:00N 29°45' W 095°06'0 0.0
2017-Nov-13 23:30N 29°45' W 095°06'0 0.0
2017-Nov-13 23:00N 29°45' W 095°06'0 0.0
2017-Nov-13 22:30N 29°45' W 095°06'0 0.0
2017-Nov-13 22:00N 29°45' W 095°06'7 0.4
2017-Nov-13 02:00N 29°43' W 095°14'0 0.0
2017-Nov-13 01:30N 29°43' W 095°14'0 0.0
2017-Nov-13 01:00N 29°43' W 095°14'0 0.0
2017-Nov-13 00:29N 29°43' W 095°14'0 0.0
2017-Nov-13 00:00N 29°43' W 095°14'0 0.0
2017-Nov-12 23:30N 29°43' W 095°14'0 0.0
2017-Nov-12 23:00N 29°43' W 095°14'0 0.0
2017-Nov-12 22:30N 29°43' W 095°14'0 0.0
2017-Nov-12 21:58N 29°43' W 095°14'0 0.8
2017-Nov-12 21:30N 29°43' W 095°14'1 1.4
2017-Nov-12 21:00N 29°44' W 095°14'3 5.3
2017-Nov-12 20:29N 29°45' W 095°11'3 5.8
2017-Nov-12 19:58N 29°44' W 095°07'2 5.1
2017-Nov-12 19:30N 29°46' W 095°06'1 0.1
2017-Nov-12 06:43N 29°46' W 095°06'0 0.0
2017-Nov-12 06:18N 29°46' W 095°06'0 0.0
2017-Nov-12 05:57N 29°46' W 095°06'0 0.0
2017-Nov-12 05:30N 29°46' W 095°06'0 0.0
2017-Nov-12 04:56N 29°46' W 095°06'0 0.0
2017-Nov-12 04:19N 29°46' W 095°06'1 2.3
2017-Nov-12 04:00N 29°46' W 095°06'0 1.0
2017-Nov-12 03:30N 29°46' W 095°06'0 0.0
2017-Nov-12 03:00N 29°46' W 095°06'0 0.0
2017-Nov-12 01:46N 29°46' W 095°06'1 1.6
2017-Nov-12 01:23N 29°45' W 095°06'0 0.4
2017-Nov-12 00:19N 29°46' W 095°06'1 0.1
2017-Nov-11 12:11N 29°45' W 095°06'0 0.0
2017-Nov-11 12:00N 29°45' W 095°06'1 2.6
2017-Nov-11 11:29N 29°46' W 095°06'1 0.0
2017-Nov-10 17:08N 29°47' W 095°06'0 0.0
2017-Nov-10 09:58N 29°47' W 095°06'1 2.2
2017-Nov-10 09:29N 29°46' W 095°05'1 0.1
2017-Nov-10 01:05N 29°45' W 095°06'0 1.4
2017-Nov-10 01:00N 29°45' W 095°06'2 4.0
2017-Nov-10 00:30N 29°45' W 095°04'1 2.1
2017-Nov-10 00:00N 29°44' W 095°03'  
Track history (hours):
 
Tides and Currents Weather Stations Pressure Air Temp Water Temp Dewpoint Dewpoint Depression Visibility Wind Speed Wind Dir Waves Ship Positions

San Austin

Owner: Buffalo Mariner Service, Inc., Houston, TX. More information available from US FCC via Universal Licensing System and Coast Guard Vessel Documentation Center.

Last reported at 2017-Nov-19 23:39 UTC. Time now 2017-Nov-21 19:22 UTC.
Position N 29°45' W 095°06'.

Length 20 m; draft 3 m.

Type: Tug. MMSI: 367361210.

Date/timePositionNaut miles runAvg speedWind from/ knotsBaromVisibWave heightAir tempDewpointWater temp
2017-Nov-19 23:39N 29°45' W 095°06'1 4.1
2017-Nov-19 23:30N 29°46' W 095°05'2 5.0
2017-Nov-19 23:00N 29°44' W 095°03'0 0.5
2017-Nov-19 22:31N 29°44' W 095°03'0 0.1
2017-Nov-19 22:00N 29°44' W 095°03'0 0.0
2017-Nov-19 21:31N 29°44' W 095°03'0 0.0
2017-Nov-19 21:01N 29°44' W 095°03'0 0.0
2017-Nov-19 20:31N 29°44' W 095°03'0 0.0
2017-Nov-19 20:01N 29°44' W 095°03'0 0.0
2017-Nov-19 19:31N 29°44' W 095°03'0 0.0
2017-Nov-19 19:00N 29°44' W 095°03'0 0.0
2017-Nov-19 18:31N 29°44' W 095°03'0 0.0
2017-Nov-19 18:01N 29°44' W 095°03'0 0.0
2017-Nov-19 17:31N 29°44' W 095°03'0 0.0
2017-Nov-19 17:01N 29°44' W 095°03'0 0.0
2017-Nov-19 16:31N 29°44' W 095°03'0 0.0
2017-Nov-19 15:59N 29°44' W 095°03'0 0.0
2017-Nov-19 15:30N 29°44' W 095°03'2 4.4
2017-Nov-19 15:00N 29°46' W 095°05'1 0.1
2017-Nov-18 20:47N 29°47' W 095°06'1 2.4
2017-Nov-18 20:26N 29°46' W 095°05'3 6.7
2017-Nov-18 19:56N 29°44' W 095°02'3 6.3
2017-Nov-18 19:30N 29°42' W 095°00'4 6.9
2017-Nov-18 19:00N 29°39' W 094°58'3 7.2
2017-Nov-18 18:31N 29°36' W 094°57'4 7.3
2017-Nov-18 18:01N 29°33' W 094°54'1 0.1
2017-Nov-18 05:18N 29°32' W 094°54'2 7.4
2017-Nov-18 05:00N 29°34' W 094°55'4 7.5
2017-Nov-18 04:30N 29°37' W 094°57'4 7.7
2017-Nov-18 04:01N 29°41' W 094°59'4 6.9
2017-Nov-18 03:29N 29°43' W 095°01'2 2.7
2017-Nov-18 02:55N 29°44' W 095°03'0 0.0
2017-Nov-18 02:31N 29°44' W 095°03'0 0.0
2017-Nov-18 02:01N 29°44' W 095°03'0 0.0
2017-Nov-18 01:30N 29°44' W 095°03'0 0.0
2017-Nov-18 01:01N 29°44' W 095°03'0 0.0
2017-Nov-18 00:30N 29°44' W 095°03'0 0.0
2017-Nov-18 00:01N 29°44' W 095°03'0 0.0
2017-Nov-17 23:31N 29°44' W 095°03'0 0.0
2017-Nov-17 23:01N 29°44' W 095°03'0 0.0
2017-Nov-17 22:31N 29°44' W 095°03'0 0.0
2017-Nov-17 22:01N 29°44' W 095°03'0 0.0
2017-Nov-17 21:30N 29°44' W 095°03'0 0.0
2017-Nov-17 21:01N 29°44' W 095°03'0 0.0
2017-Nov-17 20:30N 29°44' W 095°03'0 0.0
2017-Nov-17 20:01N 29°44' W 095°03'0 0.0
2017-Nov-17 19:31N 29°44' W 095°03'0 0.0
2017-Nov-17 19:01N 29°44' W 095°03'0 0.4
2017-Nov-17 18:30N 29°44' W 095°03'4 1.2
2017-Nov-17 15:39N 29°47' W 095°06'0 0.1
2017-Nov-17 13:02N 29°46' W 095°06'0 0.1
2017-Nov-17 12:53N 29°46' W 095°06'0 0.1
2017-Nov-17 12:24N 29°46' W 095°06'1 1.7
2017-Nov-17 11:59N 29°46' W 095°06'3 6.3
2017-Nov-17 11:28N 29°44' W 095°03'3 7.2
2017-Nov-17 11:01N 29°42' W 094°60'1 1.4
2017-Nov-17 10:23N 29°41' W 094°60'0 0.0
2017-Nov-17 09:59N 29°41' W 094°60'0 0.0
2017-Nov-17 09:25N 29°41' W 094°60'0 0.0
2017-Nov-17 09:01N 29°41' W 094°60'0 0.0
2017-Nov-17 08:30N 29°41' W 094°60'0 0.0
2017-Nov-17 07:59N 29°41' W 094°60'0 0.0
2017-Nov-17 07:30N 29°41' W 094°60'0 0.0
2017-Nov-17 07:00N 29°41' W 094°60'0 0.0
2017-Nov-17 06:30N 29°41' W 094°60'0 0.0
2017-Nov-17 05:59N 29°41' W 094°60'0 0.0
2017-Nov-17 05:30N 29°41' W 094°60'0 0.0
2017-Nov-17 05:01N 29°41' W 094°60'0 0.0
2017-Nov-17 04:29N 29°41' W 094°60'0 0.0
2017-Nov-17 04:01N 29°41' W 094°60'0 0.0
2017-Nov-17 03:30N 29°41' W 094°60'0 0.0
2017-Nov-17 03:00N 29°41' W 094°60'0 0.0
2017-Nov-17 02:31N 29°41' W 094°60'0 0.0
2017-Nov-17 02:00N 29°41' W 094°60'0 0.0
2017-Nov-17 01:29N 29°41' W 094°60'0 0.0
2017-Nov-17 01:00N 29°41' W 094°60'0 0.0
2017-Nov-17 00:31N 29°41' W 094°60'0 0.0
2017-Nov-17 00:01N 29°41' W 094°60'0 0.0
2017-Nov-16 23:29N 29°41' W 094°60'0 0.0
2017-Nov-16 23:01N 29°41' W 094°60'0 0.5
2017-Nov-16 22:31N 29°41' W 094°60'1 2.3
2017-Nov-16 22:01N 29°42' W 095°00'3 6.0
2017-Nov-16 21:30N 29°44' W 095°03'3 5.0
2017-Nov-16 20:57N 29°45' W 095°06'0 0.1
2017-Nov-16 20:09N 29°45' W 095°06'0 0.0
2017-Nov-16 19:54N 29°45' W 095°06'0 0.0
2017-Nov-16 19:15N 29°45' W 095°06'0 0.0
2017-Nov-16 18:59N 29°45' W 095°06'0 0.0
2017-Nov-16 18:25N 29°45' W 095°06'0 0.0
2017-Nov-16 18:00N 29°45' W 095°06'0 0.0
2017-Nov-16 16:53N 29°45' W 095°06'0 0.0
2017-Nov-16 16:30N 29°45' W 095°06'0 0.0
2017-Nov-16 16:00N 29°45' W 095°06'0 0.0
2017-Nov-16 15:30N 29°45' W 095°06'0 0.0
2017-Nov-16 14:58N 29°45' W 095°06'0 0.0
2017-Nov-16 14:27N 29°45' W 095°06'0 0.0
2017-Nov-16 13:55N 29°45' W 095°06'0 0.0
2017-Nov-16 13:27N 29°45' W 095°06'0 0.0
2017-Nov-16 13:00N 29°45' W 095°06'0 0.0
2017-Nov-16 12:30N 29°45' W 095°06'0 0.0
2017-Nov-16 12:00N 29°45' W 095°06'0 0.0
2017-Nov-16 11:29N 29°45' W 095°06'0 0.0
2017-Nov-16 11:00N 29°45' W 095°06'0 0.0
2017-Nov-16 10:30N 29°45' W 095°06'0 0.0
2017-Nov-16 09:59N 29°45' W 095°06'0 0.0
2017-Nov-16 09:25N 29°45' W 095°06'0 0.0
2017-Nov-16 08:59N 29°45' W 095°06'0 0.0
2017-Nov-16 08:30N 29°45' W 095°06'0 0.0
2017-Nov-16 08:00N 29°45' W 095°06'0 0.0
2017-Nov-16 07:28N 29°45' W 095°06'0 0.0
2017-Nov-16 06:59N 29°45' W 095°06'0 0.0
2017-Nov-16 06:29N 29°45' W 095°06'0 0.0
2017-Nov-16 06:00N 29°45' W 095°06'1 1.2
2017-Nov-16 05:28N 29°46' W 095°06'1 1.4
2017-Nov-16 04:53N 29°46' W 095°07'0 0.1
2017-Nov-16 04:30N 29°46' W 095°07'0 0.0
2017-Nov-16 04:00N 29°46' W 095°07'0 0.0
2017-Nov-16 03:30N 29°46' W 095°07'0 0.0
2017-Nov-16 03:00N 29°46' W 095°07'0 0.0
2017-Nov-16 02:30N 29°46' W 095°07'0 0.0
2017-Nov-16 02:00N 29°46' W 095°07'0 0.0
2017-Nov-16 01:30N 29°46' W 095°07'0 0.0
2017-Nov-16 01:00N 29°46' W 095°07'0 0.0
2017-Nov-16 00:30N 29°46' W 095°07'1 0.8
2017-Nov-15 22:42N 29°45' W 095°06'0 1.2
2017-Nov-15 22:25N 29°45' W 095°06'0 0.0
2017-Nov-15 11:02N 29°45' W 095°06'0 0.1
2017-Nov-15 10:57N 29°45' W 095°06'1 2.0
2017-Nov-15 10:30N 29°46' W 095°05'3 6.0
2017-Nov-15 10:00N 29°44' W 095°03'4 7.1
2017-Nov-15 09:30N 29°42' W 094°59'1 0.4
2017-Nov-15 06:40N 29°41' W 095°00'0 0.0
2017-Nov-15 06:15N 29°41' W 095°00'0 0.0
2017-Nov-15 06:00N 29°41' W 095°00'0 0.0
2017-Nov-15 05:26N 29°41' W 095°00'0 0.0
2017-Nov-15 05:00N 29°41' W 095°00'0 0.0
2017-Nov-15 04:28N 29°41' W 095°00'0 0.0
2017-Nov-15 03:58N 29°41' W 095°00'0 0.0
2017-Nov-15 03:15N 29°41' W 095°00'0 0.0
2017-Nov-15 03:00N 29°41' W 095°00'0 0.0
2017-Nov-15 02:07N 29°41' W 095°00'0 0.0
2017-Nov-15 01:48N 29°41' W 095°00'0 0.0
2017-Nov-15 01:19N 29°41' W 095°00'0 0.0
2017-Nov-15 00:54N 29°41' W 095°00'0 0.0
2017-Nov-15 00:30N 29°41' W 095°00'0 0.0
2017-Nov-14 20:15N 29°41' W 095°00'0 0.0
2017-Nov-14 18:22N 29°41' W 095°00'0 0.0
2017-Nov-14 17:21N 29°41' W 095°00'0 0.6
2017-Nov-14 17:00N 29°41' W 095°00'2 3.2
2017-Nov-14 16:30N 29°42' W 095°01'4 6.8
2017-Nov-14 15:57N 29°45' W 095°04'2 4.3
2017-Nov-14 15:30N 29°45' W 095°06'0 0.1
2017-Nov-14 15:00N 29°45' W 095°06'0 0.2
2017-Nov-14 14:30N 29°45' W 095°06'0 0.0
2017-Nov-14 14:00N 29°45' W 095°06'0 0.0
2017-Nov-14 13:29N 29°45' W 095°06'0 0.0
2017-Nov-14 12:57N 29°45' W 095°06'0 0.0
2017-Nov-14 12:24N 29°45' W 095°06'0 0.0
2017-Nov-14 12:00N 29°45' W 095°06'0 0.0
2017-Nov-14 11:26N 29°45' W 095°06'0 0.0
2017-Nov-14 10:58N 29°45' W 095°06'0 0.0
2017-Nov-14 10:30N 29°45' W 095°06'0 0.0
2017-Nov-14 09:58N 29°45' W 095°06'0 0.0
2017-Nov-14 09:30N 29°45' W 095°06'0 0.0
2017-Nov-14 08:58N 29°45' W 095°06'0 0.0
2017-Nov-14 08:27N 29°45' W 095°06'0 0.0
2017-Nov-14 08:00N 29°45' W 095°06'0 0.0
2017-Nov-14 07:04N 29°45' W 095°06'0 0.0
2017-Nov-14 06:34N 29°45' W 095°06'0 0.0
2017-Nov-14 06:30N 29°45' W 095°06'0 0.0
2017-Nov-14 06:00N 29°45' W 095°06'0 0.0
2017-Nov-14 05:30N 29°45' W 095°06'0 0.0
2017-Nov-14 05:00N 29°45' W 095°06'0 0.0
2017-Nov-14 04:30N 29°45' W 095°06'0 0.0
2017-Nov-14 04:00N 29°45' W 095°06'0 0.0
2017-Nov-14 03:30N 29°45' W 095°06'0 0.0
2017-Nov-14 03:00N 29°45' W 095°06'0 0.0
2017-Nov-14 02:30N 29°45' W 095°06'0 0.0
2017-Nov-14 02:00N 29°45' W 095°06'0 0.0
2017-Nov-14 01:28N 29°45' W 095°06'0 0.0
2017-Nov-14 00:57N 29°45' W 095°06'0 0.0
2017-Nov-14 00:26N 29°45' W 095°06'0 0.0
2017-Nov-14 00:00N 29°45' W 095°06'0 0.0
2017-Nov-13 23:30N 29°45' W 095°06'0 0.0
2017-Nov-13 23:00N 29°45' W 095°06'0 0.0
2017-Nov-13 22:30N 29°45' W 095°06'0 0.0
2017-Nov-13 22:00N 29°45' W 095°06'7 0.4
2017-Nov-13 02:00N 29°43' W 095°14'0 0.0
2017-Nov-13 01:30N 29°43' W 095°14'0 0.0
2017-Nov-13 01:00N 29°43' W 095°14'0 0.0
2017-Nov-13 00:29N 29°43' W 095°14'0 0.0
2017-Nov-13 00:00N 29°43' W 095°14'0 0.0
2017-Nov-12 23:30N 29°43' W 095°14'0 0.0
2017-Nov-12 23:00N 29°43' W 095°14'0 0.0
2017-Nov-12 22:30N 29°43' W 095°14'0 0.0
2017-Nov-12 21:58N 29°43' W 095°14'0 0.8
2017-Nov-12 21:30N 29°43' W 095°14'1 1.4
2017-Nov-12 21:00N 29°44' W 095°14'3 5.3
2017-Nov-12 20:29N 29°45' W 095°11'3 5.8
2017-Nov-12 19:58N 29°44' W 095°07'2 5.1
2017-Nov-12 19:30N 29°46' W 095°06'1 0.1
2017-Nov-12 06:43N 29°46' W 095°06'0 0.0
2017-Nov-12 06:18N 29°46' W 095°06'0 0.0
2017-Nov-12 05:57N 29°46' W 095°06'0 0.0
2017-Nov-12 05:30N 29°46' W 095°06'0 0.0
2017-Nov-12 04:56N 29°46' W 095°06'0 0.0
2017-Nov-12 04:19N 29°46' W 095°06'1 2.3
2017-Nov-12 04:00N 29°46' W 095°06'0 1.0
2017-Nov-12 03:30N 29°46' W 095°06'0 0.0
2017-Nov-12 03:00N 29°46' W 095°06'0 0.0
2017-Nov-12 01:46N 29°46' W 095°06'1 1.6
2017-Nov-12 01:23N 29°45' W 095°06'0 0.4
2017-Nov-12 00:19N 29°46' W 095°06'1 0.1
2017-Nov-11 12:11N 29°45' W 095°06'0 0.0
2017-Nov-11 12:00N 29°45' W 095°06'1 2.6
2017-Nov-11 11:29N 29°46' W 095°06'1 0.0
2017-Nov-10 17:08N 29°47' W 095°06'0 0.0
2017-Nov-10 09:58N 29°47' W 095°06'1 2.2
2017-Nov-10 09:29N 29°46' W 095°05'1 0.1
2017-Nov-10 01:05N 29°45' W 095°06'0 1.4
2017-Nov-10 01:00N 29°45' W 095°06'2 4.0
2017-Nov-10 00:30N 29°45' W 095°04'1 2.1
2017-Nov-10 00:00N 29°44' W 095°03'  

Dump ship's entire track history